Time;durP1;ratioP1;P1;durP2;ratioP2;P2;SDS_P1;SDS_P2;PMS_P1;PMS_P2;Temp;Humidity;BMP_temperature;BMP_pressure;BME280_temperature;BME280_humidity;BME280_pressure;Samples;Min_cycle;Max_cycle;Signal;HPM_P1;HPM_P2
2022/08/07 00:01:17;;;;;;;3.83;2.20;;;17.20;99.90;;;;;;5042609;28;20509;-77
2022/08/07 00:03:44;;;;;;;3.47;2.08;;;17.20;99.90;;;;;;5048410;28;20104;-78
2022/08/07 00:06:09;;;;;;;3.13;2.25;;;17.20;99.90;;;;;;5041127;28;20044;-77
2022/08/07 00:08:35;;;;;;;4.97;2.20;;;17.20;99.90;;;;;;5047023;28;20036;-76
2022/08/07 00:11:03;;;;;;;4.72;2.22;;;17.10;99.90;;;;;;5045312;28;20032;-78
2022/08/07 00:13:28;;;;;;;2.78;2.28;;;17.20;99.90;;;;;;5053027;28;20017;-77
2022/08/07 00:15:54;;;;;;;3.28;1.98;;;17.10;99.90;;;;;;5058819;28;20036;-78
2022/08/07 00:18:24;;;;;;;3.88;2.22;;;17.10;99.90;;;;;;5053818;28;20436;-78
2022/08/07 00:20:57;;;;;;;4.88;2.40;;;17.00;99.90;;;;;;5055599;28;20024;-77
2022/08/07 00:23:23;;;;;;;3.20;2.03;;;17.00;99.90;;;;;;5049132;28;20448;-77
2022/08/07 00:25:50;;;;;;;2.60;2.40;;;17.00;99.90;;;;;;5059216;28;20028;-77
2022/08/07 00:28:15;;;;;;;2.80;2.22;;;17.00;99.90;;;;;;5035282;28;20082;-77
2022/08/07 00:30:41;;;;;;;3.80;2.30;;;16.90;99.90;;;;;;5049694;28;20037;-78
2022/08/07 00:33:06;;;;;;;3.60;2.42;;;16.90;99.90;;;;;;5043683;28;20036;-78
2022/08/07 00:35:32;;;;;;;4.00;2.35;;;16.90;99.90;;;;;;5043183;28;20026;-77
2022/08/07 00:37:58;;;;;;;2.63;2.20;;;16.90;99.90;;;;;;5040434;28;20022;-78
2022/08/07 00:40:25;;;;;;;4.55;2.40;;;16.80;99.90;;;;;;5055036;28;20021;-76
2022/08/07 00:42:51;;;;;;;5.28;2.30;;;16.80;99.90;;;;;;5029856;28;20503;-78
2022/08/07 00:45:16;;;;;;;3.70;2.30;;;16.80;99.90;;;;;;5050313;28;20103;-78
2022/08/07 00:47:42;;;;;;;2.50;2.30;;;16.80;99.90;;;;;;5043685;28;20033;-77
2022/08/07 00:50:08;;;;;;;4.60;2.20;;;16.70;99.90;;;;;;5043455;28;20063;-77
2022/08/07 00:52:33;;;;;;;2.83;2.40;;;16.70;99.90;;;;;;5039248;28;20017;-78
2022/08/07 00:54:59;;;;;;;3.15;2.40;;;16.70;99.90;;;;;;5044851;28;20111;-78
2022/08/07 00:57:25;;;;;;;4.15;2.20;;;16.70;99.90;;;;;;5048398;28;20033;-78
2022/08/07 00:59:51;;;;;;;3.35;2.55;;;16.60;99.90;;;;;;5029564;28;20481;-78
2022/08/07 01:02:18;;;;;;;7.63;2.60;;;16.60;99.90;;;;;;5046203;28;20036;-77
2022/08/07 01:04:44;;;;;;;5.55;3.05;;;16.60;99.90;;;;;;5045998;28;20025;-78
2022/08/07 01:07:11;;;;;;;3.45;2.53;;;16.60;99.90;;;;;;5047917;28;20025;-77
2022/08/07 01:09:37;;;;;;;2.65;2.20;;;16.50;99.90;;;;;;5041640;28;20087;-77
2022/08/07 01:12:03;;;;;;;2.70;2.50;;;16.50;99.90;;;;;;5041997;28;20415;-77
2022/08/07 01:14:29;;;;;;;3.35;2.63;;;16.40;99.90;;;;;;5042624;28;20108;-77
2022/08/07 01:16:56;;;;;;;4.15;2.90;;;16.40;99.90;;;;;;5046669;28;20030;-78
2022/08/07 01:19:23;;;;;;;2.50;2.30;;;16.40;99.90;;;;;;5043685;28;20032;-78
2022/08/07 01:21:51;;;;;;;2.95;2.50;;;16.40;99.90;;;;;;5044570;28;20052;-77
2022/08/07 01:24:18;;;;;;;2.90;2.60;;;16.40;99.90;;;;;;5048501;28;20473;-77
2022/08/07 01:26:44;;;;;;;5.38;3.60;;;16.40;99.90;;;;;;5048572;28;20484;-74
2022/08/07 01:29:12;;;;;;;4.18;3.15;;;16.40;99.90;;;;;;5028608;28;20028;-78
2022/08/07 01:31:38;;;;;;;3.70;2.70;;;16.30;99.90;;;;;;5049443;28;20112;-78
2022/08/07 01:34:05;;;;;;;5.25;3.40;;;16.20;99.90;;;;;;5024435;28;20492;-78
2022/08/07 01:36:31;;;;;;;4.50;2.75;;;16.30;99.90;;;;;;5049374;28;20029;-77
2022/08/07 01:38:57;;;;;;;3.20;2.90;;;16.20;99.90;;;;;;5042258;28;20112;-77
2022/08/07 01:41:24;;;;;;;3.78;3.13;;;16.10;99.90;;;;;;5043282;28;20021;-78
2022/08/07 01:43:50;;;;;;;8.13;3.20;;;16.10;99.90;;;;;;5046131;28;20106;-76
2022/08/07 01:46:18;;;;;;;3.92;2.97;;;16.00;99.90;;;;;;5050632;28;20469;-79
2022/08/07 01:48:45;;;;;;;4.45;3.20;;;16.00;99.90;;;;;;5036163;28;20025;-77
2022/08/07 01:51:20;;;;;;;3.55;3.15;;;16.00;99.90;;;;;;5033260;28;20124;-76
2022/08/07 01:53:49;;;;;;;3.95;3.42;;;16.00;99.90;;;;;;5053079;28;20032;-78
2022/08/07 01:56:28;;;;;;;3.90;3.03;;;16.00;99.90;;;;;;5040352;28;20485;-74
2022/08/07 01:59:13;;;;;;;6.85;4.28;;;16.00;99.90;;;;;;5030443;28;20029;-77
2022/08/07 02:01:43;;;;;;;4.65;3.97;;;16.00;99.90;;;;;;5040902;28;20029;-76
2022/08/07 02:04:17;;;;;;;3.63;3.33;;;16.00;99.90;;;;;;5053180;28;20448;-77
2022/08/07 02:06:44;;;;;;;4.78;3.05;;;15.90;99.90;;;;;;5042104;28;20037;-76
2022/08/07 02:09:14;;;;;;;4.32;3.85;;;15.90;99.90;;;;;;5048960;28;20380;-77
2022/08/07 02:11:43;;;;;;;5.43;4.00;;;15.80;99.90;;;;;;5044824;28;20045;-78
2022/08/07 02:14:10;;;;;;;4.05;3.67;;;15.80;99.90;;;;;;5048346;28;20033;-78
2022/08/07 02:16:38;;;;;;;4.07;3.67;;;15.80;99.90;;;;;;5037126;28;20083;-77
2022/08/07 02:19:07;;;;;;;5.03;3.85;;;15.80;99.90;;;;;;5048648;28;20051;-76
2022/08/07 02:21:36;;;;;;;5.32;3.55;;;15.70;99.90;;;;;;5042971;28;20021;-77
2022/08/07 02:24:03;;;;;;;4.75;3.50;;;15.60;99.90;;;;;;5048865;28;20048;-75
2022/08/07 02:26:31;;;;;;;7.63;3.83;;;15.70;99.90;;;;;;5048454;28;20035;-77
2022/08/07 02:28:57;;;;;;;5.65;4.07;;;15.60;99.90;;;;;;5053032;28;20040;-74
2022/08/07 02:31:23;;;;;;;4.03;3.70;;;15.60;99.90;;;;;;5049547;28;20025;-74
2022/08/07 02:33:51;;;;;;;4.55;4.15;;;15.70;99.90;;;;;;5041465;28;20088;-76
2022/08/07 02:36:18;;;;;;;5.18;4.25;;;15.70;99.90;;;;;;5048576;28;20119;-78
2022/08/07 02:38:46;;;;;;;4.05;3.65;;;15.60;99.90;;;;;;5022240;28;20377;-77
2022/08/07 02:41:12;;;;;;;4.97;4.40;;;15.70;99.90;;;;;;5034771;28;20029;-76
2022/08/07 02:43:41;;;;;;;4.57;4.18;;;15.60;99.90;;;;;;5038145;28;20026;-77
2022/08/07 02:46:08;;;;;;;6.18;4.35;;;15.60;99.90;;;;;;5048320;28;20039;-77
2022/08/07 02:48:34;;;;;;;7.68;4.72;;;15.60;99.90;;;;;;5041004;28;20060;-75
2022/08/07 02:51:06;;;;;;;5.43;4.25;;;15.60;99.90;;;;;;5047851;28;20064;-75
2022/08/07 02:53:34;;;;;;;5.05;4.55;;;15.50;99.90;;;;;;5044293;28;20028;-75
2022/08/07 02:56:03;;;;;;;4.82;4.43;;;15.50;99.90;;;;;;5039430;28;20044;-77
2022/08/07 02:58:30;;;;;;;4.70;4.20;;;15.50;99.90;;;;;;5044162;28;20040;-76
2022/08/07 03:00:58;;;;;;;6.50;4.50;;;15.50;99.90;;;;;;5028381;28;20017;-75
2022/08/07 03:03:28;;;;;;;5.38;4.85;;;15.40;99.90;;;;;;5041429;28;20048;-74
2022/08/07 03:05:55;;;;;;;7.47;4.43;;;15.40;99.90;;;;;;5040784;28;20028;-77
2022/08/07 03:08:23;;;;;;;6.40;4.50;;;15.20;99.90;;;;;;5043866;28;20025;-78
2022/08/07 03:10:49;;;;;;;4.15;3.75;;;15.10;99.90;;;;;;5040075;28;20122;-75
2022/08/07 03:13:16;;;;;;;3.95;3.65;;;15.10;99.90;;;;;;5047537;28;20021;-76
2022/08/07 03:15:43;;;;;;;4.43;4.03;;;15.10;99.90;;;;;;5039755;28;20029;-77
2022/08/07 03:18:10;;;;;;;5.00;4.07;;;15.10;99.90;;;;;;5029344;28;20025;-76
2022/08/07 03:20:36;;;;;;;3.65;3.20;;;15.00;99.90;;;;;;5048354;28;20098;-77
2022/08/07 03:23:03;;;;;;;5.03;4.07;;;15.00;99.90;;;;;;5045738;28;20354;-78
2022/08/07 03:25:31;;;;;;;3.90;3.50;;;15.00;99.90;;;;;;5039994;28;20020;-78
2022/08/07 03:27:59;;;;;;;4.53;4.13;;;15.00;99.90;;;;;;5036667;28;20041;-77
2022/08/07 03:30:25;;;;;;;4.72;4.28;;;15.00;99.90;;;;;;5026128;28;20072;-78
2022/08/07 03:32:53;;;;;;;4.82;4.43;;;14.90;99.90;;;;;;5046438;28;20032;-78
2022/08/07 03:35:24;;;;;;;8.60;4.65;;;15.00;99.90;;;;;;5035719;28;20054;-79
2022/08/07 03:37:57;;;;;;;4.37;3.87;;;15.00;99.90;;;;;;5046281;28;20449;-79
2022/08/07 03:40:23;;;;;;;;;;;15.10;99.90;;;;;;5026912;28;20304;-78
2022/08/07 03:42:51;;;;;;;5.65;4.03;;;14.90;99.90;;;;;;5043718;28;19913;-77
2022/08/07 03:45:18;;;;;;;4.70;4.20;;;15.00;99.90;;;;;;5042732;28;20052;-78
2022/08/07 03:47:44;;;;;;;4.25;3.75;;;15.00;99.90;;;;;;5041083;28;20381;-79
2022/08/07 03:50:09;;;;;;;5.82;4.20;;;15.00;99.90;;;;;;5039803;28;20472;-79
2022/08/07 03:52:36;;;;;;;5.22;4.22;;;14.90;99.90;;;;;;5050448;28;20021;-77
2022/08/07 03:55:03;;;;;;;5.72;4.18;;;14.90;99.90;;;;;;5045105;28;20409;-77
2022/08/07 03:57:30;;;;;;;6.45;3.78;;;14.90;99.90;;;;;;5043643;28;20028;-75
2022/08/07 03:59:56;;;;;;;4.15;3.75;;;14.80;99.90;;;;;;5042665;28;20051;-78
2022/08/07 04:02:23;;;;;;;6.80;3.88;;;14.80;99.90;;;;;;5042878;28;20489;-78
2022/08/07 04:04:49;;;;;;;5.32;3.58;;;14.80;99.90;;;;;;5044938;28;20025;-77
2022/08/07 04:07:19;;;;;;;5.72;4.30;;;14.70;99.90;;;;;;5048303;28;20017;-76
2022/08/07 04:09:46;;;;;;;4.35;3.95;;;14.60;99.90;;;;;;5049393;28;20037;-77
2022/08/07 04:12:16;;;;;;;5.78;3.70;;;14.60;99.90;;;;;;5048215;28;20029;-78
2022/08/07 04:14:42;;;;;;;6.20;4.40;;;14.60;99.90;;;;;;5040439;28;20033;-77
2022/08/07 04:17:09;;;;;;;8.50;4.32;;;14.70;99.90;;;;;;5042644;28;20021;-75
2022/08/07 04:19:35;;;;;;;3.92;3.47;;;14.70;99.90;;;;;;5041609;28;20040;-76
2022/08/07 04:22:02;;;;;;;5.65;4.63;;;14.70;99.90;;;;;;5041589;28;20026;-76
2022/08/07 04:24:28;;;;;;;4.70;4.30;;;14.60;99.90;;;;;;5052023;28;20020;-77
2022/08/07 04:26:53;;;;;;;4.57;4.18;;;14.70;99.90;;;;;;5046785;28;20029;-79
2022/08/07 04:29:19;;;;;;;5.05;4.38;;;14.70;99.90;;;;;;5039293;28;20384;-78
2022/08/07 04:31:46;;;;;;;5.47;4.95;;;14.60;99.90;;;;;;5043500;28;20048;-72
2022/08/07 04:34:13;;;;;;;4.85;4.45;;;14.70;99.90;;;;;;5050361;28;20017;-78
2022/08/07 04:36:39;;;;;;;5.72;4.40;;;14.60;99.90;;;;;;5040556;28;20041;-77
2022/08/07 04:39:05;;;;;;;6.65;4.30;;;14.70;99.90;;;;;;5044808;28;20531;-78
2022/08/07 04:41:31;;;;;;;5.97;4.38;;;14.60;99.90;;;;;;5043572;28;20120;-77
2022/08/07 04:43:59;;;;;;;5.60;4.20;;;14.60;99.90;;;;;;5041127;28;20161;-77
2022/08/07 04:46:48;;;;;;;7.55;4.72;;;14.60;99.90;;;;;;5041407;28;20025;-78
2022/08/07 04:49:26;;;;;;;5.45;4.18;;;14.60;99.90;;;;;;5048863;28;20021;-78
2022/08/07 04:52:07;;;;;;;6.88;4.57;;;14.60;99.90;;;;;;5038263;28;20135;-77
2022/08/07 04:54:44;;;;;;;6.03;5.05;;;14.60;99.90;;;;;;5041304;28;20547;-77
2022/08/07 04:57:34;;;;;;;6.97;4.70;;;14.50;99.90;;;;;;5049703;28;20040;-78
2022/08/07 05:00:13;;;;;;;5.43;4.75;;;14.50;99.90;;;;;;5039131;28;20052;-78
2022/08/07 05:02:48;;;;;;;5.18;4.68;;;14.50;99.90;;;;;;5043697;28;20036;-77
2022/08/07 05:05:23;;;;;;;7.57;5.05;;;14.60;99.90;;;;;;5040629;28;20029;-75
2022/08/07 05:07:52;;;;;;;6.45;5.03;;;14.60;99.90;;;;;;5039178;28;20018;-79
2022/08/07 05:10:27;;;;;;;5.45;4.45;;;14.60;99.90;;;;;;5043502;28;20135;-77
2022/08/07 05:13:06;;;;;;;7.93;4.85;;;14.60;99.90;;;;;;5038422;28;20155;-77
2022/08/07 05:15:37;;;;;;;6.35;4.80;;;14.60;99.90;;;;;;5039060;28;20068;-78
2022/08/07 05:18:07;;;;;;;5.63;5.03;;;14.50;99.90;;;;;;5051764;28;20055;-78
2022/08/07 05:20:42;;;;;;;5.63;5.13;;;14.60;99.90;;;;;;5038382;28;20473;-77
2022/08/07 05:23:16;;;;;;;8.40;5.15;;;14.60;99.90;;;;;;5047344;28;20105;-77
2022/08/07 05:25:43;;;;;;;6.20;5.25;;;14.60;99.90;;;;;;5049159;28;20639;-76
2022/08/07 05:28:11;;;;;;;6.85;5.68;;;14.70;99.90;;;;;;5047685;28;20020;-77
2022/08/07 05:30:37;;;;;;;7.35;6.05;;;14.70;99.90;;;;;;5048708;28;20445;-77
2022/08/07 05:33:04;;;;;;;5.78;5.18;;;14.70;99.90;;;;;;5029451;28;20029;-78
2022/08/07 05:35:34;;;;;;;6.95;6.25;;;14.80;99.90;;;;;;5045752;28;20110;-78
2022/08/07 05:38:01;;;;;;;7.18;5.82;;;14.70;99.90;;;;;;5049931;28;20466;-77
2022/08/07 05:40:27;;;;;;;12.20;6.55;;;14.70;99.90;;;;;;5031342;28;20021;-73
2022/08/07 05:42:53;;;;;;;7.40;6.65;;;14.70;99.90;;;;;;5025311;28;20025;-72
2022/08/07 05:45:20;;;;;;;7.00;6.30;;;14.70;99.90;;;;;;5042944;28;20075;-72
2022/08/07 05:47:46;;;;;;;8.10;7.10;;;14.70;99.90;;;;;;5032548;28;20037;-72
2022/08/07 05:50:13;;;;;;;8.93;6.82;;;14.80;99.90;;;;;;5048707;28;20060;-73
2022/08/07 05:52:39;;;;;;;7.97;6.95;;;14.80;99.90;;;;;;5045104;28;20029;-72
2022/08/07 05:55:06;;;;;;;7.97;6.88;;;14.80;99.90;;;;;;5046968;28;20507;-73
2022/08/07 05:57:35;;;;;;;9.55;7.82;;;14.80;99.90;;;;;;5043489;28;20481;-72
2022/08/07 06:00:01;;;;;;;7.13;6.30;;;14.90;99.90;;;;;;5043721;28;20051;-72
2022/08/07 06:02:30;;;;;;;7.88;7.07;;;14.90;99.90;;;;;;5046764;28;20528;-73
2022/08/07 06:05:01;;;;;;;9.38;7.20;;;14.90;99.90;;;;;;5043194;28;20076;-72
2022/08/07 06:07:27;;;;;;;8.93;7.60;;;15.00;99.90;;;;;;5028129;28;20457;-72
2022/08/07 06:09:53;;;;;;;14.10;8.63;;;15.00;99.90;;;;;;5050600;28;20026;-70
2022/08/07 06:12:19;;;;;;;11.55;8.88;;;15.00;99.90;;;;;;5045006;28;20032;-73
2022/08/07 06:14:45;;;;;;;13.85;8.88;;;15.00;99.90;;;;;;5041474;28;20445;-74
2022/08/07 06:17:13;;;;;;;15.43;9.35;;;15.10;99.90;;;;;;5046088;28;20423;-74
2022/08/07 06:19:39;;;;;;;12.18;10.38;;;15.00;99.90;;;;;;5046694;28;20025;-74
2022/08/07 06:22:06;;;;;;;11.15;9.70;;;15.10;99.90;;;;;;5044769;28;20033;-74
2022/08/07 06:24:31;;;;;;;10.18;9.07;;;15.20;99.90;;;;;;5047715;28;20051;-74
2022/08/07 06:26:57;;;;;;;12.88;9.27;;;15.20;99.90;;;;;;5032795;28;20033;-73
2022/08/07 06:29:27;;;;;;;12.73;9.65;;;15.30;99.90;;;;;;5047114;28;20477;-73
2022/08/07 06:31:52;;;;;;;11.50;9.40;;;15.30;99.90;;;;;;5032473;28;20024;-74
2022/08/07 06:34:18;;;;;;;15.80;9.70;;;15.30;99.90;;;;;;5053793;28;20028;-74
2022/08/07 06:36:43;;;;;;;14.70;9.52;;;15.40;99.90;;;;;;5048177;28;20025;-74
2022/08/07 06:39:09;;;;;;;12.05;9.18;;;15.30;99.90;;;;;;5048777;28;20024;-74
2022/08/07 06:41:40;;;;;;;14.52;10.82;;;15.50;99.90;;;;;;5037122;28;20510;-74
2022/08/07 06:44:09;;;;;;;14.35;10.07;;;15.50;99.90;;;;;;5046840;28;20079;-74
2022/08/07 06:46:35;;;;;;;19.05;10.10;;;15.50;99.90;;;;;;5042518;28;20018;-73
2022/08/07 06:49:02;;;;;;;14.77;9.48;;;15.60;99.90;;;;;;5040251;28;20033;-74
2022/08/07 06:51:30;;;;;;;12.55;8.75;;;15.60;99.90;;;;;;5042628;28;20476;-73
2022/08/07 06:54:02;;;;;;;14.40;9.15;;;15.60;99.90;;;;;;5044486;28;20385;-74
2022/08/07 06:56:38;;;;;;;14.88;10.20;;;15.70;99.90;;;;;;5046119;28;20419;-75
2022/08/07 06:59:09;;;;;;;16.55;10.20;;;15.80;99.90;;;;;;5035958;28;20037;-73
2022/08/07 07:01:36;;;;;;;11.95;9.20;;;15.90;99.90;;;;;;5041601;28;20065;-74
2022/08/07 07:04:04;;;;;;;13.23;8.68;;;15.90;99.90;;;;;;5044528;28;20115;-75
2022/08/07 07:06:31;;;;;;;13.20;9.15;;;16.00;99.90;;;;;;5044983;28;20056;-74
2022/08/07 07:09:24;;;;;;;13.60;8.63;;;16.10;99.90;;;;;;5051343;28;20026;-75
2022/08/07 07:11:58;;;;;;;;;;;16.20;99.90;;;;;;5047398;28;20029;-74
2022/08/07 07:14:27;;;;;;;13.27;8.25;;;16.20;99.90;;;;;;5053936;28;19916;-74
2022/08/07 07:16:58;;;;;;;11.85;8.50;;;16.40;99.90;;;;;;5054505;28;20032;-74
2022/08/07 07:19:34;;;;;;;13.25;8.48;;;16.50;99.90;;;;;;5060803;28;20376;-75
2022/08/07 07:22:01;;;;;;;10.30;7.85;;;16.60;99.90;;;;;;5048129;28;20025;-74
2022/08/07 07:24:27;;;;;;;10.23;8.40;;;16.70;99.90;;;;;;5043745;28;20048;-76
2022/08/07 07:26:56;;;;;;;11.05;7.53;;;16.90;99.90;;;;;;5031210;28;20060;-75
2022/08/07 07:29:26;;;;;;;13.57;8.60;;;17.00;99.90;;;;;;5056106;28;20377;-76
2022/08/07 07:31:54;;;;;;;9.88;8.52;;;17.00;99.90;;;;;;5045806;28;20112;-76
2022/08/07 07:34:29;;;;;;;10.57;7.90;;;17.20;99.90;;;;;;5037328;28;20070;-76
2022/08/07 07:37:01;;;;;;;10.90;7.40;;;17.20;99.90;;;;;;5055497;28;20020;-76
2022/08/07 07:39:29;;;;;;;12.45;7.80;;;17.40;99.90;;;;;;5058745;28;20032;-76
2022/08/07 07:41:56;;;;;;;10.93;7.00;;;17.50;99.90;;;;;;5030552;28;20029;-76
2022/08/07 07:44:23;;;;;;;14.30;7.80;;;17.60;99.90;;;;;;5040679;28;20048;-77
2022/08/07 07:46:50;;;;;;;8.65;6.88;;;17.70;99.90;;;;;;5027761;28;20025;-76
2022/08/07 07:49:18;;;;;;;11.32;6.82;;;18.00;99.90;;;;;;5045389;28;20072;-76
2022/08/07 07:51:46;;;;;;;11.70;6.93;;;18.10;99.90;;;;;;5041804;28;20033;-76
2022/08/07 07:54:13;;;;;;;12.25;7.65;;;18.20;99.90;;;;;;5045987;28;20525;-76
2022/08/07 07:56:42;;;;;;;10.55;6.85;;;18.20;99.90;;;;;;5042982;28;20024;-76
2022/08/07 07:59:09;;;;;;;10.07;6.57;;;18.30;99.90;;;;;;5041468;28;20431;-76
2022/08/07 08:01:38;;;;;;;10.43;6.15;;;18.50;99.90;;;;;;5042115;28;20377;-74
2022/08/07 08:04:07;;;;;;;7.95;5.35;;;18.50;99.90;;;;;;5041603;28;20085;-77
2022/08/07 08:06:34;;;;;;;8.93;6.45;;;18.70;99.90;;;;;;5044662;28;20028;-76
2022/08/07 08:09:03;;;;;;;9.05;6.00;;;18.80;99.90;;;;;;5041702;28;20495;-75
2022/08/07 08:11:29;;;;;;;10.88;5.28;;;19.00;99.90;;;;;;5042476;28;20257;-75
2022/08/07 08:13:55;;;;;;;6.22;5.20;;;19.10;99.90;;;;;;5042163;28;20017;-74
2022/08/07 08:16:26;;;;;;;9.27;5.07;;;19.20;99.90;;;;;;5040691;28;20036;-75
2022/08/07 08:18:55;;;;;;;8.70;4.70;;;19.40;99.90;;;;;;5040935;28;20040;-74
2022/08/07 08:27:10;;;;;;;5.22;3.03;;;19.70;99.90;;;;;;5037240;28;20052;-74
2022/08/07 08:30:01;;;;;;;6.80;3.38;;;19.90;99.90;;;;;;5043785;28;20396;-75
2022/08/07 08:32:30;;;;;;;4.25;3.03;;;20.10;99.90;;;;;;5040598;28;20406;-75
2022/08/07 08:34:58;;;;;;;4.15;2.80;;;20.30;99.90;;;;;;5045863;28;20017;-74
2022/08/07 08:37:28;;;;;;;4.03;2.63;;;20.50;99.90;;;;;;5038034;28;20025;-76
2022/08/07 08:39:55;;;;;;;4.38;2.83;;;20.60;99.90;;;;;;5042041;28;20155;-76
2022/08/07 08:42:59;;;;;;;5.30;2.15;;;20.80;99.90;;;;;;5042981;28;20473;-79
2022/08/07 08:45:48;;;;;;;6.90;2.50;;;20.80;99.90;;;;;;5035819;28;20064;-75
2022/08/07 08:48:38;;;;;;;4.72;2.35;;;21.00;99.90;;;;;;5044763;28;20473;-77
2022/08/07 08:51:09;;;;;;;4.95;2.40;;;21.20;99.90;;;;;;5036920;28;20363;-78
2022/08/07 08:53:57;;;;;;;2.72;2.08;;;21.40;99.90;;;;;;5049165;28;20036;-79
2022/08/07 08:56:43;;;;;;;6.20;2.53;;;21.50;99.90;;;;;;5048020;28;20395;-75
2022/08/07 08:59:21;;;;;;;2.05;1.88;;;21.70;99.90;;;;;;5046561;28;20029;-78
2022/08/07 09:02:26;;;;;;;2.80;1.83;;;21.80;99.90;;;;;;5041761;28;20029;-77
2022/08/07 09:05:29;;;;;;;4.00;2.55;;;22.00;99.90;;;;;;5047192;28;20040;-80
2022/08/07 09:08:09;;;;;;;3.90;1.83;;;22.20;99.90;;;;;;5040470;28;20033;-77
2022/08/07 09:10:50;;;;;;;2.25;1.63;;;22.30;99.90;;;;;;5041806;28;20037;-77
2022/08/07 09:13:37;;;;;;;3.40;1.60;;;22.50;99.90;;;;;;5049312;28;20017;-80
2022/08/07 09:16:24;;;;;;;4.20;1.20;;;22.60;99.90;;;;;;5042721;28;20065;-76
2022/08/07 09:18:59;;;;;;;3.80;2.03;;;22.60;99.90;;;;;;5046085;28;20029;-79
2022/08/07 09:21:30;;;;;;;1.90;1.50;;;22.80;99.90;;;;;;5036244;28;20029;-79
2022/08/07 09:24:13;;;;;;;2.40;1.30;;;22.90;99.90;;;;;;5040614;28;20071;-81
2022/08/07 09:26:57;;;;;;;;;;;23.00;99.90;;;;;;5047521;28;20041;-77
2022/08/07 09:29:40;;;;;;;3.25;1.40;;;23.10;99.70;;;;;;5044206;28;20364;-79
2022/08/07 09:32:43;;;;;;;3.28;1.30;;;23.40;98.20;;;;;;5042869;28;20048;-80
2022/08/07 09:35:30;;;;;;;1.77;1.33;;;23.40;98.20;;;;;;5046562;28;20030;-78
2022/08/07 09:38:10;;;;;;;5.35;1.45;;;23.50;98.80;;;;;;5041630;28;20021;-79
2022/08/07 09:41:13;;;;;;;2.60;1.42;;;23.60;98.70;;;;;;5039669;28;20073;-77
2022/08/07 09:44:15;;;;;;;1.95;1.25;;;23.80;98.90;;;;;;5043620;28;20033;-77
2022/08/07 09:46:44;;;;;;;1.77;1.63;;;23.90;99.20;;;;;;5048220;28;20040;-75
2022/08/07 09:49:25;;;;;;;3.28;1.58;;;24.00;99.30;;;;;;5039795;28;20026;-75
2022/08/07 09:52:20;;;;;;;4.22;1.50;;;24.00;97.90;;;;;;5041272;28;20052;-75
2022/08/07 09:54:56;;;;;;;2.92;1.90;;;24.30;98.20;;;;;;5044804;28;20104;-75
2022/08/07 09:57:31;;;;;;;2.80;1.83;;;24.40;97.50;;;;;;5041950;28;20029;-75
2022/08/07 10:00:10;;;;;;;1.50;1.25;;;24.40;96.20;;;;;;5045492;28;20122;-76
2022/08/07 10:02:45;;;;;;;2.97;1.42;;;24.40;96.90;;;;;;5049955;28;20477;-75
2022/08/07 10:05:42;;;;;;;3.13;1.50;;;24.50;97.90;;;;;;5041145;28;20029;-77
2022/08/07 10:08:22;;;;;;;2.90;1.63;;;24.50;95.60;;;;;;5031402;28;20119;-79
2022/08/07 10:11:12;;;;;;;3.38;1.55;;;24.60;96.00;;;;;;5040088;28;20037;-77
2022/08/07 10:13:47;;;;;;;3.03;1.48;;;24.80;96.80;;;;;;5044888;28;20053;-79
2022/08/07 10:16:15;;;;;;;2.08;1.40;;;24.90;96.00;;;;;;5042524;28;20031;-80
2022/08/07 10:18:49;;;;;;;2.38;1.20;;;25.20;96.00;;;;;;5046185;28;20033;-78
2022/08/07 10:21:27;;;;;;;2.33;1.67;;;25.20;94.00;;;;;;5044923;28;20123;-78
2022/08/07 10:24:12;;;;;;;2.22;1.63;;;25.40;94.80;;;;;;5044515;28;20033;-79
2022/08/07 10:26:55;;;;;;;4.00;1.85;;;25.40;94.60;;;;;;5047154;28;20029;-75
2022/08/07 10:29:51;;;;;;;2.17;1.52;;;25.50;93.80;;;;;;5048192;28;20041;-76
2022/08/07 10:32:26;;;;;;;2.90;1.95;;;25.60;93.20;;;;;;5040900;28;20124;-79
2022/08/07 10:35:28;;;;;;;3.53;1.60;;;25.50;93.90;;;;;;5046556;28;20151;-77
2022/08/07 10:38:20;;;;;;;4.22;1.70;;;25.10;94.40;;;;;;5027147;28;20029;-77
2022/08/07 10:41:10;;;;;;;6.18;2.05;;;24.90;95.10;;;;;;5040258;28;20060;-76
2022/08/07 10:43:53;;;;;;;4.10;1.98;;;24.90;94.70;;;;;;5034760;28;20036;-76
2022/08/07 10:46:28;;;;;;;6.25;2.00;;;25.00;94.90;;;;;;5037582;28;20032;-77
2022/08/07 10:49:13;;;;;;;3.38;2.00;;;25.00;94.20;;;;;;5035878;28;20024;-76
2022/08/07 10:52:05;;;;;;;3.00;2.00;;;25.10;94.40;;;;;;5047310;28;20044;-74
2022/08/07 10:54:40;;;;;;;2.55;1.90;;;25.40;93.50;;;;;;5036946;28;20036;-78
2022/08/07 10:57:30;;;;;;;3.55;1.90;;;25.50;94.80;;;;;;5049287;28;20025;-75
2022/08/07 11:00:09;;;;;;;7.13;3.83;;;25.70;93.00;;;;;;5046281;28;20090;-79
2022/08/07 11:02:45;;;;;;;3.47;2.65;;;25.30;93.00;;;;;;5048753;28;20037;-77
2022/08/07 11:05:31;;;;;;;6.38;4.72;;;24.90;93.50;;;;;;5046221;28;20029;-79
2022/08/07 11:08:11;;;;;;;2.88;2.33;;;24.70;94.10;;;;;;5052211;28;20025;-74
2022/08/07 11:10:51;;;;;;;3.63;2.28;;;24.70;94.00;;;;;;5045437;28;20252;-76
2022/08/07 11:13:35;;;;;;;3.70;1.98;;;25.00;94.90;;;;;;5044265;28;20234;-75
2022/08/07 11:16:16;;;;;;;3.30;2.08;;;25.30;93.70;;;;;;5054668;28;20025;-74
2022/08/07 11:18:50;;;;;;;2.63;2.00;;;25.40;93.60;;;;;;5043805;28;20021;-75
2022/08/07 11:21:32;;;;;;;2.58;2.38;;;25.60;92.20;;;;;;5044180;28;20027;-75
2022/08/07 11:24:05;;;;;;;2.88;1.70;;;25.70;92.20;;;;;;5047536;28;20017;-75
2022/08/07 11:26:41;;;;;;;1.45;1.35;;;25.40;91.70;;;;;;5036337;28;20021;-75
2022/08/07 11:29:13;;;;;;;2.80;2.10;;;25.60;92.70;;;;;;5044587;28;20048;-75
2022/08/07 11:31:50;;;;;;;1.73;1.63;;;25.70;91.10;;;;;;5043725;28;20380;-75
2022/08/07 11:34:35;;;;;;;6.03;2.50;;;25.80;92.10;;;;;;5038782;28;20356;-75
2022/08/07 11:37:09;;;;;;;2.75;1.70;;;26.30;92.30;;;;;;5048430;28;20449;-76
2022/08/07 11:40:17;;;;;;;4.07;1.70;;;26.20;90.30;;;;;;5046534;28;20485;-83
2022/08/07 11:42:56;;;;;;;4.05;2.05;;;26.30;90.60;;;;;;4982408;28;20127;-76
2022/08/07 11:45:43;;;;;;;3.03;1.52;;;26.40;91.00;;;;;;5043117;28;20021;-82
2022/08/07 11:48:31;;;;;;;2.50;1.45;;;26.60;91.10;;;;;;5046820;28;20075;-84
2022/08/07 11:51:21;;;;;;;2.15;1.67;;;26.70;90.70;;;;;;5040325;28;20037;-78
2022/08/07 11:54:04;;;;;;;3.90;1.85;;;26.70;90.70;;;;;;5042719;28;20053;-79
2022/08/07 11:56:57;;;;;;;4.80;1.70;;;26.30;90.40;;;;;;5048391;28;20032;-78
2022/08/07 11:59:47;;;;;;;2.28;1.70;;;26.30;91.50;;;;;;5046191;28;20087;-77
2022/08/07 12:02:41;;;;;;;2.13;1.92;;;26.20;90.60;;;;;;5043637;28;20426;-76
2022/08/07 12:05:26;;;;;;;3.97;1.60;;;26.20;90.50;;;;;;5038712;28;20020;-76
2022/08/07 12:08:04;;;;;;;2.70;1.40;;;26.40;90.50;;;;;;5040831;28;20025;-77
2022/08/07 12:10:53;;;;;;;2.00;1.20;;;26.30;90.00;;;;;;5035854;28;20029;-75
2022/08/07 12:13:37;;;;;;;1.77;1.40;;;26.40;90.40;;;;;;5046668;28;20078;-78
2022/08/07 12:16:10;;;;;;;2.60;1.88;;;26.30;90.40;;;;;;5036964;28;20032;-77
2022/08/07 12:18:45;;;;;;;1.65;1.55;;;26.00;91.20;;;;;;5046464;28;20032;-75
2022/08/07 12:21:23;;;;;;;3.10;1.70;;;25.80;91.60;;;;;;5042885;28;20025;-77
2022/08/07 12:24:00;;;;;;;2.88;1.92;;;26.00;90.20;;;;;;5049323;28;20029;-76
2022/08/07 12:27:08;;;;;;;3.88;2.22;;;26.40;90.70;;;;;;5049610;28;20628;-76
2022/08/07 12:29:41;;;;;;;3.03;2.08;;;26.70;88.40;;;;;;5036141;28;20045;-77
2022/08/07 12:32:18;;;;;;;3.15;1.90;;;26.90;88.50;;;;;;5038781;28;20064;-78
2022/08/07 12:34:45;;;;;;;4.15;2.30;;;26.90;90.30;;;;;;5031927;28;20033;-77
2022/08/07 12:37:14;;;;;;;6.70;1.85;;;26.90;89.00;;;;;;5047039;28;20516;-77
2022/08/07 12:39:43;;;;;;;2.15;1.95;;;27.10;90.70;;;;;;5043986;28;20083;-77
2022/08/07 12:42:10;;;;;;;3.47;2.15;;;27.10;88.70;;;;;;5045409;28;20068;-77
2022/08/07 12:44:42;;;;;;;3.42;2.40;;;26.80;91.40;;;;;;5049787;28;20036;-77
2022/08/07 12:47:19;;;;;;;2.03;1.60;;;26.40;89.70;;;;;;5045014;28;20523;-77
2022/08/07 12:49:53;;;;;;;2.75;2.03;;;26.40;90.60;;;;;;5049244;28;20057;-77
2022/08/07 12:52:33;;;;;;;4.10;2.53;;;26.50;90.10;;;;;;5048052;28;20392;-77
2022/08/07 12:55:26;;;;;;;2.72;2.53;;;26.60;88.60;;;;;;5052445;28;20059;-77
2022/08/07 12:57:54;;;;;;;3.13;2.40;;;27.00;91.00;;;;;;5045961;28;20472;-77
2022/08/07 13:00:26;;;;;;;4.63;1.95;;;27.00;89.10;;;;;;5049443;28;20036;-77
2022/08/07 13:03:37;;;;;;;1.80;1.70;;;27.10;90.40;;;;;;5053156;28;20017;-78
2022/08/07 13:06:32;;;;;;;2.50;2.30;;;27.00;90.30;;;;;;5041548;28;20049;-77
2022/08/07 13:09:09;;;;;;;2.90;1.98;;;26.70;87.00;;;;;;5038336;28;20160;-77
2022/08/07 13:11:57;;;;;;;1.88;1.70;;;26.70;88.40;;;;;;5046396;28;20041;-77
2022/08/07 13:15:18;;;;;;;4.85;2.15;;;27.00;88.70;;;;;;5042187;28;20066;-77
2022/08/07 13:18:08;;;;;;;4.35;2.28;;;26.90;87.00;;;;;;4930218;29;20098;-78
2022/08/07 13:20:42;;;;;;;3.50;1.92;;;27.20;88.90;;;;;;5046372;28;20116;-77
2022/08/07 13:23:40;;;;;;;5.88;3.00;;;27.20;90.70;;;;;;5049049;28;20021;-79